Home > Products > Valid Products > TAF

000
FTUS45 KBYZ 251739
TAFMLS
TAF
KMLS 251739Z 2518/2618 16009KT P6SM BKN090
     FM252000 26015KT P6SM SCT100
     FM260300 25010KT P6SM FEW100=



000
FTUS45 KBYZ 251739
TAFSHR
TAF
KSHR 251739Z 2518/2618 17006KT P6SM BKN150
     FM252200 30015KT P6SM BKN120
     FM260200 VRB05KT P6SM FEW100 SCT250=



000
FTUS45 KBYZ 251739
TAFLVM
TAF
KLVM 251739Z 2518/2618 25027G36KT P6SM BKN150
     FM251900 24035G55KT P6SM BKN150
     FM260100 25030G40KT P6SM SCT120
     FM260600 25025G30KT P6SM BKN120=



000
FTUS45 KBYZ 251739
TAFBIL
TAF
KBIL 251739Z 2518/2618 24015KT P6SM FEW150 BKN200
     FM251900 26024G33KT P6SM FEW150 BKN200
     FM260200 24020G26KT P6SM SCT150=



000
FTUS45 KBYZ 251739
TAFMLS
TAF
KMLS 251739Z 2518/2618 16009KT P6SM BKN090
     FM252000 26015KT P6SM SCT100
     FM260300 25010KT P6SM FEW100=



000
FTUS45 KBYZ 251739
TAFSHR
TAF
KSHR 251739Z 2518/2618 17006KT P6SM BKN150
     FM252200 30015KT P6SM BKN120
     FM260200 VRB05KT P6SM FEW100 SCT250=



000
FTUS45 KBYZ 251739
TAFBIL
TAF
KBIL 251739Z 2518/2618 24015KT P6SM FEW150 BKN200
     FM251900 26024G33KT P6SM FEW150 BKN200
     FM260200 24020G26KT P6SM SCT150=



000
FTUS45 KBYZ 251739
TAFLVM
TAF
KLVM 251739Z 2518/2618 25027G36KT P6SM BKN150
     FM251900 24035G55KT P6SM BKN150
     FM260100 25030G40KT P6SM SCT120
     FM260600 25025G30KT P6SM BKN120=



000
FTUS45 KBYZ 251120
TAFLVM
TAF
KLVM 251120Z 2512/2612 24020G35KT P6SM SCT060 BKN120
     FM251500 24035G50KT P6SM SCT100 SCT250
     FM252200 24025G42KT P6SM SCT100 SCT250
     FM260400 23020G35KT P6SM SCT250=



000
FTUS45 KBYZ 251120
TAFMLS
TAF
KMLS 251120Z 2512/2612 30010KT P6SM FEW120 SCT250
     FM251700 26018KT P6SM SCT060 BKN120
     FM252000 29020G35KT P6SM SCT100 SCT250
     FM260300 25011KT P6SM SCT100 SCT250=



000
FTUS45 KBYZ 251120
TAFBIL
TAF
KBIL 251120Z 2512/2612 26015KT P6SM SCT060 BKN100 WS020/30045KT
     FM251700 26020G35KT P6SM SCT100 SCT250
     FM260300 24012G20KT P6SM FEW100 SCT250=



000
FTUS45 KBYZ 251120
TAFSHR
TAF
KSHR 251120Z 2512/2612 VRB05KT P6SM VCSH BKN050 WS020/30045KT
     FM251700 30016KT P6SM VCSH BKN050 WS020/30045KT
     FM252200 30015KT P6SM SCT100 SCT250 WS020/30040KT
     FM260200 VRB05KT P6SM FEW100 SCT250=



000
FTUS45 KBYZ 251120
TAFLVM
TAF
KLVM 251120Z 2512/2612 24020G35KT P6SM SCT060 BKN120
     FM251500 24035G50KT P6SM SCT100 SCT250
     FM252200 24025G42KT P6SM SCT100 SCT250
     FM260400 23020G35KT P6SM SCT250=



000
FTUS45 KBYZ 251120
TAFSHR
TAF
KSHR 251120Z 2512/2612 VRB05KT P6SM VCSH BKN050 WS020/30045KT
     FM251700 30016KT P6SM VCSH BKN050 WS020/30045KT
     FM252200 30015KT P6SM SCT100 SCT250 WS020/30040KT
     FM260200 VRB05KT P6SM FEW100 SCT250=



000
FTUS45 KBYZ 251120
TAFBIL
TAF
KBIL 251120Z 2512/2612 26015KT P6SM SCT060 BKN100 WS020/30045KT
     FM251700 26020G35KT P6SM SCT100 SCT250
     FM260300 24012G20KT P6SM FEW100 SCT250=



000
FTUS45 KBYZ 251120
TAFMLS
TAF
KMLS 251120Z 2512/2612 30010KT P6SM FEW120 SCT250
     FM251700 26018KT P6SM SCT060 BKN120
     FM252000 29020G35KT P6SM SCT100 SCT250
     FM260300 25011KT P6SM SCT100 SCT250=



000
FTUS45 KBYZ 250520
TAFBIL
TAF
KBIL 250520Z 2506/2606 28012KT P6SM SCT100
     FM251300 25014G24KT P6SM BKN100
     FM251700 24022G32KT P6SM BKN100=



000
FTUS45 KBYZ 250520
TAFSHR
TAF
KSHR 250520Z 2506/2606 VRB04KT P6SM SCT100
     FM251600 31010KT P6SM BKN100=



000
FTUS45 KBYZ 250520
TAFMLS
TAF
KMLS 250520Z 2506/2606 29010KT P6SM FEW100
     FM251000 20006KT P6SM SCT100
     FM251800 28012KT P6SM BKN100=



000
FTUS45 KBYZ 250520
TAFLVM
TAF
KLVM 250520Z 2506/2606 25020G32KT P6SM SCT100
     FM250900 24026G40KT P6SM BKN100
     FM251500 24034G50KT P6SM BKN100=



000
FTUS45 KBYZ 250520
TAFBIL
TAF
KBIL 250520Z 2506/2606 28012KT P6SM SCT100
     FM251300 25014G24KT P6SM BKN100
     FM251700 24022G32KT P6SM BKN100=



000
FTUS45 KBYZ 250520
TAFMLS
TAF
KMLS 250520Z 2506/2606 29010KT P6SM FEW100
     FM251000 20006KT P6SM SCT100
     FM251800 28012KT P6SM BKN100=



000
FTUS45 KBYZ 250520
TAFLVM
TAF
KLVM 250520Z 2506/2606 25020G32KT P6SM SCT100
     FM250900 24026G40KT P6SM BKN100
     FM251500 24034G50KT P6SM BKN100=



000
FTUS45 KBYZ 250520
TAFSHR
TAF
KSHR 250520Z 2506/2606 VRB04KT P6SM SCT100
     FM251600 31010KT P6SM BKN100=



000
FTUS45 KBYZ 242328
TAFBIL
TAF
KBIL 242328Z 2500/2524 34012KT P6SM SCT100
     FM250200 28012KT P6SM SCT100
     FM251400 24018G26KT P6SM BKN100=



000
FTUS45 KBYZ 242328
TAFMLS
TAF
KMLS 242328Z 2500/2524 31018G26KT P6SM SKC
     FM250200 29012KT P6SM FEW100
     FM251000 20006KT P6SM SCT100
     FM251800 28010KT P6SM BKN100=



000
FTUS45 KBYZ 242328
TAFSHR
TAF
KSHR 242328Z 2500/2524 31016G26KT P6SM VCSH BKN050
     FM250200 30010KT P6SM SCT100
     FM250800 VRB04KT P6SM SCT100
     FM251800 31010KT P6SM BKN100=



000
FTUS45 KBYZ 242328
TAFLVM
TAF
KLVM 242328Z 2500/2524 25018G28KT P6SM SCT100
     FM250900 24026G40KT P6SM BKN100
     FM251500 24034G50KT P6SM BKN100=



000
FTUS45 KBYZ 242328
TAFBIL
TAF
KBIL 242328Z 2500/2524 34012KT P6SM SCT100
     FM250200 28012KT P6SM SCT100
     FM251400 24018G26KT P6SM BKN100=



000
FTUS45 KBYZ 242328
TAFSHR
TAF
KSHR 242328Z 2500/2524 31016G26KT P6SM VCSH BKN050
     FM250200 30010KT P6SM SCT100
     FM250800 VRB04KT P6SM SCT100
     FM251800 31010KT P6SM BKN100=



000
FTUS45 KBYZ 242328
TAFLVM
TAF
KLVM 242328Z 2500/2524 25018G28KT P6SM SCT100
     FM250900 24026G40KT P6SM BKN100
     FM251500 24034G50KT P6SM BKN100=



000
FTUS45 KBYZ 242328
TAFMLS
TAF
KMLS 242328Z 2500/2524 31018G26KT P6SM SKC
     FM250200 29012KT P6SM FEW100
     FM251000 20006KT P6SM SCT100
     FM251800 28010KT P6SM BKN100=



000
FTUS45 KBYZ 241737
TAFSHR
TAF
KSHR 241737Z 2418/2518 29013KT P6SM BKN100
     FM250000 32020G28KT P6SM BKN100
     FM250400 30015KT P6SM SCT100
     FM250600 29007KT P6SM SCT100
     FM251200 VRB04KT P6SM BKN100=



000
FTUS45 KBYZ 241737
TAFMLS
TAF
KMLS 241737Z 2418/2518 29017KT P6SM OVC080
     FM242000 31020G27KT P6SM BKN080
     FM250200 30012KT P6SM BKN100
     FM250900 20006KT P6SM SCT100=



000
FTUS45 KBYZ 241737
TAFLVM
TAF
KLVM 241737Z 2418/2518 23038G51KT P6SM SCT045 SCT060 OVC080
     FM242100 24030G45KT P6SM SCT040 BKN100
     FM250100 24015G30KT P6SM SCT040 SCT150
     FM250900 24025G40KT P6SM SCT050 BKN150
     FM251600 24034G50KT P6SM BKN100=



000
FTUS45 KBYZ 241737
TAFBIL
TAF
KBIL 241737Z 2418/2518 28033G44KT P6SM FEW070 SCT120 BKN200
     FM242000 29026G30KT P6SM FEW070 BKN100
     FM250300 25012G20KT P6SM SCT060 SCT200
     FM250800 24012KT P6SM VCSH BKN080
     FM251600 24016KT P6SM BKN100=



000
FTUS45 KBYZ 241737
TAFBIL
TAF
KBIL 241737Z 2418/2518 28033G44KT P6SM FEW070 SCT120 BKN200
     FM242000 29026G30KT P6SM FEW070 BKN100
     FM250300 25012G20KT P6SM SCT060 SCT200
     FM250800 24012KT P6SM VCSH BKN080
     FM251600 24016KT P6SM BKN100=



000
FTUS45 KBYZ 241737
TAFMLS
TAF
KMLS 241737Z 2418/2518 29017KT P6SM OVC080
     FM242000 31020G27KT P6SM BKN080
     FM250200 30012KT P6SM BKN100
     FM250900 20006KT P6SM SCT100=



000
FTUS45 KBYZ 241737
TAFLVM
TAF
KLVM 241737Z 2418/2518 23038G51KT P6SM SCT045 SCT060 OVC080
     FM242100 24030G45KT P6SM SCT040 BKN100
     FM250100 24015G30KT P6SM SCT040 SCT150
     FM250900 24025G40KT P6SM SCT050 BKN150
     FM251600 24034G50KT P6SM BKN100=



000
FTUS45 KBYZ 241737
TAFSHR
TAF
KSHR 241737Z 2418/2518 29013KT P6SM BKN100
     FM250000 32020G28KT P6SM BKN100
     FM250400 30015KT P6SM SCT100
     FM250600 29007KT P6SM SCT100
     FM251200 VRB04KT P6SM BKN100=



000
FTUS45 KBYZ 241129
TAFMLS
TAF
KMLS 241129Z 2412/2512 28015G22KT P6SM VCSH SCT060 BKN120
      WS020/30050KT
     FM241700 28020G32KT P6SM SCT080 BKN150
     FM250200 28018KT P6SM SCT200 WS020/30045KT
     FM250900 29012KT P6SM SCT200=



000
FTUS45 KBYZ 241129
TAFLVM
TAF
KLVM 241129Z 2412/2512 24025G45KT P6SM VCSH SCT060 BKN150
     FM242100 24020G35KT P6SM VCSH SCT040 BKN200
     FM250100 24015G30KT P6SM SCT040 SCT200
     FM250900 24025G40KT P6SM SCT050 BKN150=



000
FTUS45 KBYZ 241129
TAFBIL
TAF
KBIL 241129Z 2412/2512 26018G30KT P6SM VCSH SCT060 SCT120 BKN200
     FM250200 25012G20KT P6SM SCT060 SCT200
     FM250800 23010KT P6SM VCSH BKN060=



000
FTUS45 KBYZ 241129
TAFSHR
TAF
KSHR 241129Z 2412/2512 30010KT P6SM VCSH SCT080 BKN180
      WS020/30050KT
     FM241600 30018G30KT P6SM VCSH BKN060 BKN150
     FM250200 30015KT P6SM FEW080 SCT200
     FM251000 30010KT P6SM FEW050 SCT150=



000
FTUS45 KBYZ 241129
TAFBIL
TAF
KBIL 241129Z 2412/2512 26018G30KT P6SM VCSH SCT060 SCT120 BKN200
     FM250200 25012G20KT P6SM SCT060 SCT200
     FM250800 23010KT P6SM VCSH BKN060=



000
FTUS45 KBYZ 241129
TAFSHR
TAF
KSHR 241129Z 2412/2512 30010KT P6SM VCSH SCT080 BKN180
      WS020/30050KT
     FM241600 30018G30KT P6SM VCSH BKN060 BKN150
     FM250200 30015KT P6SM FEW080 SCT200
     FM251000 30010KT P6SM FEW050 SCT150=



000
FTUS45 KBYZ 241129
TAFMLS
TAF
KMLS 241129Z 2412/2512 28015G22KT P6SM VCSH SCT060 BKN120
      WS020/30050KT
     FM241700 28020G32KT P6SM SCT080 BKN150
     FM250200 28018KT P6SM SCT200 WS020/30045KT
     FM250900 29012KT P6SM SCT200=



000
FTUS45 KBYZ 241129
TAFLVM
TAF
KLVM 241129Z 2412/2512 24025G45KT P6SM VCSH SCT060 BKN150
     FM242100 24020G35KT P6SM VCSH SCT040 BKN200
     FM250100 24015G30KT P6SM SCT040 SCT200
     FM250900 24025G40KT P6SM SCT050 BKN150=



000
FTUS45 KBYZ 240808 AAA
TAFBIL
TAF AMD
KBIL 240808Z 2408/2506 25018G32KT P6SM VCSH FEW070 SCT120 BKN200
     FM242300 25016KT P6SM BKN120=



000
FTUS45 KBYZ 240808 AAA
TAFBIL
TAF AMD
KBIL 240808Z 2408/2506 25018G32KT P6SM VCSH FEW070 SCT120 BKN200
     FM242300 25016KT P6SM BKN120=



000
FTUS45 KBYZ 240527
TAFBIL
TAF
KBIL 240527Z 2406/2506 24016KT P6SM BKN120
     FM240900 25024G32KT P6SM BKN120
     FM242300 25016KT P6SM BKN120=



000
FTUS45 KBYZ 240527
TAFMLS
TAF
KMLS 240527Z 2406/2506 27008KT P6SM SCT120
     FM241200 29016G24KT P6SM VCSH BKN080
     FM241800 31014G22KT P6SM SCT100
     FM250200 30010KT P6SM SCT100=



000
FTUS45 KBYZ 240527
TAFSHR
TAF
KSHR 240527Z 2406/2506 24005KT P6SM SCT150
     FM241400 30016KT P6SM VCSH BKN080
     FM250000 30012KT P6SM BKN100=



000
FTUS45 KBYZ 240527
TAFLVM
TAF
KLVM 240527Z 2406/2506 23026G40KT P6SM BKN120
     FM240900 23036G54KT P6SM BKN120
     FM242100 24020G34KT P6SM BKN120=



000
FTUS45 KBYZ 240527
TAFLVM
TAF
KLVM 240527Z 2406/2506 23026G40KT P6SM BKN120
     FM240900 23036G54KT P6SM BKN120
     FM242100 24020G34KT P6SM BKN120=



000
FTUS45 KBYZ 240527
TAFMLS
TAF
KMLS 240527Z 2406/2506 27008KT P6SM SCT120
     FM241200 29016G24KT P6SM VCSH BKN080
     FM241800 31014G22KT P6SM SCT100
     FM250200 30010KT P6SM SCT100=



000
FTUS45 KBYZ 240527
TAFBIL
TAF
KBIL 240527Z 2406/2506 24016KT P6SM BKN120
     FM240900 25024G32KT P6SM BKN120
     FM242300 25016KT P6SM BKN120=



000
FTUS45 KBYZ 240527
TAFSHR
TAF
KSHR 240527Z 2406/2506 24005KT P6SM SCT150
     FM241400 30016KT P6SM VCSH BKN080
     FM250000 30012KT P6SM BKN100=



000
FTUS45 KBYZ 232330
TAFSHR
TAF
KSHR 232330Z 2400/2424 29005KT P6SM SCT200
     FM241500 30016KT P6SM BKN200=



000
FTUS45 KBYZ 232330
TAFBIL
TAF
KBIL 232330Z 2400/2424 24016KT P6SM BKN150
     FM240900 25022G30KT P6SM BKN150=



000
FTUS45 KBYZ 232330
TAFMLS
TAF
KMLS 232330Z 2400/2424 29008KT P6SM SCT150
     FM241500 29016G24KT P6SM BKN150=



000
FTUS45 KBYZ 232330
TAFLVM
TAF
KLVM 232330Z 2400/2424 25018G30KT P6SM BKN150
     FM240400 23026G40KT P6SM BKN150
     FM240800 23036G54KT P6SM BKN150
     FM242200 24020G34KT P6SM BKN150=



000
FTUS45 KBYZ 232330
TAFMLS
TAF
KMLS 232330Z 2400/2424 29008KT P6SM SCT150
     FM241500 29016G24KT P6SM BKN150=



000
FTUS45 KBYZ 232330
TAFSHR
TAF
KSHR 232330Z 2400/2424 29005KT P6SM SCT200
     FM241500 30016KT P6SM BKN200=



000
FTUS45 KBYZ 232330
TAFLVM
TAF
KLVM 232330Z 2400/2424 25018G30KT P6SM BKN150
     FM240400 23026G40KT P6SM BKN150
     FM240800 23036G54KT P6SM BKN150
     FM242200 24020G34KT P6SM BKN150=



000
FTUS45 KBYZ 232330
TAFBIL
TAF
KBIL 232330Z 2400/2424 24016KT P6SM BKN150
     FM240900 25022G30KT P6SM BKN150=



000
FTUS45 KBYZ 231729
TAFBIL
TAF
KBIL 231729Z 2318/2418 24019KT P6SM FEW100 BKN150
     FM240100 25020KT P6SM FEW150
     FM240900 25022G28KT P6SM BKN150=



000
FTUS45 KBYZ 231729
TAFSHR
TAF
KSHR 231729Z 2318/2418 VRB05KT P6SM BKN200
     FM240100 VRB04KT P6SM SCT200=



000
FTUS45 KBYZ 231729
TAFLVM
TAF
KLVM 231729Z 2318/2418 25026G35KT P6SM BKN120
     FM240500 23025G42KT P6SM SCT150
     FM240900 24035G55KT P6SM BKN100=



000
FTUS45 KBYZ 231729
TAFLVM
TAF
KLVM 231729Z 2318/2418 25026G35KT P6SM BKN120
     FM240500 23025G42KT P6SM SCT150
     FM240900 24035G55KT P6SM BKN100=



000
FTUS45 KBYZ 231729
TAFSHR
TAF
KSHR 231729Z 2318/2418 VRB05KT P6SM BKN200
     FM240100 VRB04KT P6SM SCT200=



000
FTUS45 KBYZ 231729
TAFBIL
TAF
KBIL 231729Z 2318/2418 24019KT P6SM FEW100 BKN150
     FM240100 25020KT P6SM FEW150
     FM240900 25022G28KT P6SM BKN150=



000
FTUS45 KBYZ 231729
TAFMLS
TAF
KMLS 231729Z 2318/2418 24007KT P6SM SKC
     FM232000 25008KT P6SM FEW200
     FM241500 25015KT P6SM BKN150=



000
FTUS45 KBYZ 231729
TAFMLS
TAF
KMLS 231729Z 2318/2418 24007KT P6SM SKC
     FM232000 25008KT P6SM FEW200
     FM241500 25015KT P6SM BKN150=



000
FTUS45 KBYZ 231120
TAFLVM
TAF
KLVM 231120Z 2312/2412 23015G25KT P6SM VCSH FEW080 SCT120 OVC200
     FM231800 25020KT P6SM SCT200
     FM240500 23025G42KT P6SM SCT150=



000
FTUS45 KBYZ 231120
TAFLVM
TAF
KLVM 231120Z 2312/2412 23015G25KT P6SM VCSH FEW080 SCT120 OVC200
     FM231800 25020KT P6SM SCT200
     FM240500 23025G42KT P6SM SCT150=



000
FTUS45 KBYZ 231120
TAFMLS
TAF
KMLS 231120Z 2312/2412 24010KT P6SM SCT200=



000
FTUS45 KBYZ 231120
TAFMLS
TAF
KMLS 231120Z 2312/2412 24010KT P6SM SCT200=



000
FTUS45 KBYZ 231120
TAFBIL
TAF
KBIL 231120Z 2312/2412 24012KT P6SM FEW100 SCT200
     FM231800 26018G28KT P6SM SCT250=



000
FTUS45 KBYZ 231120
TAFBIL
TAF
KBIL 231120Z 2312/2412 24012KT P6SM FEW100 SCT200
     FM231800 26018G28KT P6SM SCT250=



000
FTUS45 KBYZ 231120
TAFSHR
TAF
KSHR 231120Z 2312/2412 VRB05KT P6SM VCSH BKN100 OVC200
     FM231900 VRB05KT P6SM FEW100 SCT200=



000
FTUS45 KBYZ 230520
TAFLVM
TAF
KLVM 230520Z 2306/2406 24020G30KT P6SM BKN080
     FM231600 24018KT P6SM SCT100=



000
FTUS45 KBYZ 230520
TAFSHR
TAF
KSHR 230520Z 2306/2406 VRB03KT P6SM SCT150=



000
FTUS45 KBYZ 230520
TAFSHR
TAF
KSHR 230520Z 2306/2406 VRB03KT P6SM SCT150=



000
FTUS45 KBYZ 230520
TAFMLS
TAF
KMLS 230520Z 2306/2406 27008KT P6SM SCT150=



000
FTUS45 KBYZ 230520
TAFBIL
TAF
KBIL 230520Z 2306/2406 22018KT P6SM SCT150 BKN200=



000
FTUS45 KBYZ 230520
TAFMLS
TAF
KMLS 230520Z 2306/2406 27008KT P6SM SCT150=



000
FTUS45 KBYZ 230520
TAFLVM
TAF
KLVM 230520Z 2306/2406 24020G30KT P6SM BKN080
     FM231600 24018KT P6SM SCT100=



000
FTUS45 KBYZ 230520
TAFBIL
TAF
KBIL 230520Z 2306/2406 22018KT P6SM SCT150 BKN200=



000
FTUS45 KBYZ 222322
TAFBIL
TAF
KBIL 222322Z 2300/2324 24020G30KT P6SM SCT150
     FM230300 22016KT P6SM SCT150=



000
FTUS45 KBYZ 222322
TAFLVM
TAF
KLVM 222322Z 2300/2324 24020G30KT P6SM SCT150=



000
FTUS45 KBYZ 222322
TAFSHR
TAF
KSHR 222322Z 2300/2324 VRB03KT P6SM SCT150=



000
FTUS45 KBYZ 222322
TAFMLS
TAF
KMLS 222322Z 2300/2324 22008KT P6SM SCT150
     FM230300 27008KT P6SM SCT150=



000
FTUS45 KBYZ 222322
TAFLVM
TAF
KLVM 222322Z 2300/2324 24020G30KT P6SM SCT150=



000
FTUS45 KBYZ 222322
TAFMLS
TAF
KMLS 222322Z 2300/2324 22008KT P6SM SCT150
     FM230300 27008KT P6SM SCT150=



000
FTUS45 KBYZ 222322
TAFSHR
TAF
KSHR 222322Z 2300/2324 VRB03KT P6SM SCT150=



000
FTUS45 KBYZ 222322
TAFBIL
TAF
KBIL 222322Z 2300/2324 24020G30KT P6SM SCT150
     FM230300 22016KT P6SM SCT150=



    US Dept of Commerce
    National Oceanic and Atmospheric Administration
    National Weather Service
    1325 East West Highway
    Silver Spring, MD 20910
    Page Author: NWS Internet Services Team
Disclaimer
Information Quality
Credits
Glossary
Privacy Policy
Freedom of Information Act (FOIA)
About Us
Career Opportunities